Woolly Bugger, West Virginia
Current Conditions -  °F | °C
As of 1:53 AM on Monday 22 Dec 2014 (Local Time) from KMRB Reporting Station
Haze Haze  
Wind Chill: 24°   Ceiling: Unl
Heat Index: 24°   Visibility: 6mi
Dew Point: 18°   Wind: 0mph
Humidity: 77%   Direction: NA
Pressure: 30.31"   Gusts: NA
Location:  39.3053°N, 77.8555°W
Report Text: KMRB 220653Z AUTO 00000KT 6SM HZ CLR M04/M08 A3031 RMK AO2 SLP269 T10441078 TSNO
Loading
Personal Weather Stations






























Interactive Weather Map New forecast layout! Learn more

10-Day Weather Forecast

Advertisements
Track Severe Weather on mobile